sensor_id;sensor_type;location;lat;lon;timestamp;pressure;altitude;pressure_sealevel;temperature;humidity
60371;BME280;48550;40.588;49.684;2023-03-03T00:01:18;102593.69;;;5.88;100.00
60371;BME280;48550;40.588;49.684;2023-03-03T00:03:45;102595.16;;;5.82;100.00
60371;BME280;48550;40.588;49.684;2023-03-03T00:06:12;102602.41;;;5.90;100.00
60371;BME280;48550;40.588;49.684;2023-03-03T00:08:39;102607.72;;;6.08;100.00
60371;BME280;48550;40.588;49.684;2023-03-03T00:11:06;102609.81;;;5.96;100.00
60371;BME280;48550;40.588;49.684;2023-03-03T00:13:49;102607.28;;;5.94;100.00
60371;BME280;48550;40.588;49.684;2023-03-03T00:16:28;102599.00;;;5.97;100.00
60371;BME280;48550;40.588;49.684;2023-03-03T00:18:54;102598.91;;;5.89;100.00
60371;BME280;48550;40.588;49.684;2023-03-03T00:23:46;102597.91;;;5.90;100.00
60371;BME280;48550;40.588;49.684;2023-03-03T00:26:38;102600.72;;;5.89;100.00
60371;BME280;48550;40.588;49.684;2023-03-03T00:32:21;102604.69;;;5.85;100.00
60371;BME280;48550;40.588;49.684;2023-03-03T00:34:49;102598.91;;;5.89;100.00
60371;BME280;48550;40.588;49.684;2023-03-03T00:37:25;102596.38;;;5.88;100.00
60371;BME280;48550;40.588;49.684;2023-03-03T00:39:52;102599.97;;;5.79;100.00
60371;BME280;48550;40.588;49.684;2023-03-03T00:42:18;102602.78;;;5.77;100.00
60371;BME280;48550;40.588;49.684;2023-03-03T00:44:47;102596.31;;;5.80;100.00
60371;BME280;48550;40.588;49.684;2023-03-03T00:49:45;102607.69;;;5.64;100.00
60371;BME280;48550;40.588;49.684;2023-03-03T00:52:16;102597.72;;;5.66;100.00
60371;BME280;48550;40.588;49.684;2023-03-03T00:54:42;102599.84;;;5.62;100.00
60371;BME280;48550;40.588;49.684;2023-03-03T00:57:09;102604.41;;;5.70;100.00
60371;BME280;48550;40.588;49.684;2023-03-03T00:59:37;102603.25;;;5.72;100.00
60371;BME280;48550;40.588;49.684;2023-03-03T01:02:03;102606.75;;;5.73;100.00
60371;BME280;48550;40.588;49.684;2023-03-03T01:04:29;102606.84;;;5.63;100.00
60371;BME280;48550;40.588;49.684;2023-03-03T01:06:55;102605.38;;;5.69;100.00
60371;BME280;48550;40.588;49.684;2023-03-03T01:09:20;102602.34;;;5.64;100.00
60371;BME280;48550;40.588;49.684;2023-03-03T01:11:46;102593.47;;;5.55;100.00
60371;BME280;48550;40.588;49.684;2023-03-03T01:14:12;102612.31;;;5.62;100.00
60371;BME280;48550;40.588;49.684;2023-03-03T01:16:38;102611.03;;;5.66;100.00
60371;BME280;48550;40.588;49.684;2023-03-03T01:19:06;102614.59;;;5.74;100.00
60371;BME280;48550;40.588;49.684;2023-03-03T01:21:32;102613.13;;;5.80;100.00
60371;BME280;48550;40.588;49.684;2023-03-03T01:23:57;102624.94;;;5.78;100.00
60371;BME280;48550;40.588;49.684;2023-03-03T01:26:23;102621.81;;;5.82;100.00
60371;BME280;48550;40.588;49.684;2023-03-03T01:28:49;102618.78;;;5.77;100.00
60371;BME280;48550;40.588;49.684;2023-03-03T01:31:15;102620.66;;;5.85;100.00
60371;BME280;48550;40.588;49.684;2023-03-03T01:33:40;102614.81;;;5.81;100.00
60371;BME280;48550;40.588;49.684;2023-03-03T01:36:06;102635.28;;;5.81;100.00
60371;BME280;48550;40.588;49.684;2023-03-03T01:38:35;102631.63;;;5.82;100.00
60371;BME280;48550;40.588;49.684;2023-03-03T01:41:01;102641.66;;;5.88;100.00
60371;BME280;48550;40.588;49.684;2023-03-03T01:43:31;102637.97;;;5.98;100.00
60371;BME280;48550;40.588;49.684;2023-03-03T01:48:38;102635.78;;;6.20;100.00
60371;BME280;48550;40.588;49.684;2023-03-03T01:53:50;102630.16;;;6.23;100.00
60371;BME280;48550;40.588;49.684;2023-03-03T01:56:17;102633.81;;;6.22;100.00
60371;BME280;48550;40.588;49.684;2023-03-03T01:58:46;102641.84;;;6.30;100.00
60371;BME280;48550;40.588;49.684;2023-03-03T02:01:18;102660.38;;;6.31;100.00
60371;BME280;48550;40.588;49.684;2023-03-03T02:03:45;102656.59;;;6.42;100.00
60371;BME280;48550;40.588;49.684;2023-03-03T02:06:16;102648.13;;;6.47;100.00
60371;BME280;48550;40.588;49.684;2023-03-03T02:11:24;102663.19;;;6.30;100.00
60371;BME280;48550;40.588;49.684;2023-03-03T02:13:51;102661.34;;;6.30;100.00
60371;BME280;48550;40.588;49.684;2023-03-03T02:16:17;102666.78;;;6.21;100.00
60371;BME280;48550;40.588;49.684;2023-03-03T02:18:43;102658.38;;;6.08;100.00
60371;BME280;48550;40.588;49.684;2023-03-03T02:21:18;102663.81;;;6.24;100.00
60371;BME280;48550;40.588;49.684;2023-03-03T02:26:24;102666.16;;;6.27;100.00
60371;BME280;48550;40.588;49.684;2023-03-03T02:28:51;102662.25;;;6.13;100.00
60371;BME280;48550;40.588;49.684;2023-03-03T02:31:20;102672.31;;;6.01;100.00
60371;BME280;48550;40.588;49.684;2023-03-03T02:33:49;102658.91;;;5.93;100.00
60371;BME280;48550;40.588;49.684;2023-03-03T02:36:22;102654.00;;;5.89;100.00
60371;BME280;48550;40.588;49.684;2023-03-03T02:41:38;102663.22;;;5.77;100.00
60371;BME280;48550;40.588;49.684;2023-03-03T02:46:35;102671.84;;;5.70;100.00
60371;BME280;48550;40.588;49.684;2023-03-03T02:49:03;102670.91;;;5.80;100.00
60371;BME280;48550;40.588;49.684;2023-03-03T02:51:30;102669.78;;;5.82;100.00
60371;BME280;48550;40.588;49.684;2023-03-03T02:53:56;102673.75;;;5.78;100.00
60371;BME280;48550;40.588;49.684;2023-03-03T02:56:22;102674.72;;;5.77;100.00
60371;BME280;48550;40.588;49.684;2023-03-03T02:58:48;102676.56;;;5.77;100.00
60371;BME280;48550;40.588;49.684;2023-03-03T03:01:13;102688.72;;;5.79;100.00
60371;BME280;48550;40.588;49.684;2023-03-03T03:03:39;102697.94;;;5.85;100.00
60371;BME280;48550;40.588;49.684;2023-03-03T03:06:05;102702.84;;;5.89;100.00
60371;BME280;48550;40.588;49.684;2023-03-03T03:08:31;102710.97;;;5.88;100.00
60371;BME280;48550;40.588;49.684;2023-03-03T03:10:57;102712.09;;;5.95;100.00
60371;BME280;48550;40.588;49.684;2023-03-03T03:13:23;102715.28;;;5.98;100.00
60371;BME280;48550;40.588;49.684;2023-03-03T03:15:49;102708.19;;;5.89;100.00
60371;BME280;48550;40.588;49.684;2023-03-03T03:18:15;102716.28;;;5.97;100.00
60371;BME280;48550;40.588;49.684;2023-03-03T03:20:41;102728.44;;;6.00;100.00
60371;BME280;48550;40.588;49.684;2023-03-03T03:23:07;102724.66;;;6.02;100.00
60371;BME280;48550;40.588;49.684;2023-03-03T03:25:34;102713.59;;;5.97;100.00
60371;BME280;48550;40.588;49.684;2023-03-03T03:28:02;102715.97;;;6.00;100.00
60371;BME280;48550;40.588;49.684;2023-03-03T03:30:28;102712.31;;;6.01;100.00
60371;BME280;48550;40.588;49.684;2023-03-03T03:32:53;102715.34;;;6.07;100.00
60371;BME280;48550;40.588;49.684;2023-03-03T03:35:19;102712.69;;;6.07;100.00
60371;BME280;48550;40.588;49.684;2023-03-03T03:37:45;102711.53;;;6.09;100.00
60371;BME280;48550;40.588;49.684;2023-03-03T03:40:11;102715.56;;;6.13;100.00
60371;BME280;48550;40.588;49.684;2023-03-03T03:42:36;102720.28;;;6.19;100.00
60371;BME280;48550;40.588;49.684;2023-03-03T03:45:04;102712.13;;;6.21;100.00
60371;BME280;48550;40.588;49.684;2023-03-03T03:47:30;102711.38;;;6.11;100.00
60371;BME280;48550;40.588;49.684;2023-03-03T03:49:55;102715.94;;;6.18;100.00
60371;BME280;48550;40.588;49.684;2023-03-03T03:52:21;102715.09;;;6.18;100.00
60371;BME280;48550;40.588;49.684;2023-03-03T03:54:47;102705.44;;;6.17;100.00
60371;BME280;48550;40.588;49.684;2023-03-03T03:57:12;102716.63;;;6.20;100.00
60371;BME280;48550;40.588;49.684;2023-03-03T03:59:38;102723.41;;;6.15;100.00
60371;BME280;48550;40.588;49.684;2023-03-03T04:02:04;102711.44;;;6.19;100.00
60371;BME280;48550;40.588;49.684;2023-03-03T04:04:30;102704.75;;;6.15;100.00
60371;BME280;48550;40.588;49.684;2023-03-03T04:06:55;102699.94;;;6.18;100.00
60371;BME280;48550;40.588;49.684;2023-03-03T04:09:21;102720.50;;;6.26;100.00
60371;BME280;48550;40.588;49.684;2023-03-03T04:11:47;102711.03;;;6.31;100.00
60371;BME280;48550;40.588;49.684;2023-03-03T04:14:12;102707.06;;;6.35;100.00
60371;BME280;48550;40.588;49.684;2023-03-03T04:16:38;102714.38;;;6.33;100.00
60371;BME280;48550;40.588;49.684;2023-03-03T04:19:04;102724.38;;;6.31;100.00
60371;BME280;48550;40.588;49.684;2023-03-03T04:21:30;102723.69;;;6.29;100.00
60371;BME280;48550;40.588;49.684;2023-03-03T04:23:55;102723.75;;;6.37;100.00
60371;BME280;48550;40.588;49.684;2023-03-03T04:26:21;102721.84;;;6.30;100.00
60371;BME280;48550;40.588;49.684;2023-03-03T04:28:47;102727.88;;;6.32;100.00
60371;BME280;48550;40.588;49.684;2023-03-03T04:31:13;102721.91;;;6.38;100.00
60371;BME280;48550;40.588;49.684;2023-03-03T04:33:38;102723.97;;;6.44;100.00
60371;BME280;48550;40.588;49.684;2023-03-03T04:36:04;102731.00;;;6.53;100.00
60371;BME280;48550;40.588;49.684;2023-03-03T04:38:30;102727.63;;;6.43;100.00
60371;BME280;48550;40.588;49.684;2023-03-03T04:40:56;102736.63;;;6.42;100.00
60371;BME280;48550;40.588;49.684;2023-03-03T04:43:22;102743.09;;;6.40;100.00
60371;BME280;48550;40.588;49.684;2023-03-03T04:45:47;102745.50;;;6.51;100.00
60371;BME280;48550;40.588;49.684;2023-03-03T04:48:13;102745.03;;;6.55;100.00
60371;BME280;48550;40.588;49.684;2023-03-03T04:50:41;102753.34;;;6.52;100.00
60371;BME280;48550;40.588;49.684;2023-03-03T04:53:06;102743.88;;;6.58;100.00
60371;BME280;48550;40.588;49.684;2023-03-03T04:55:35;102744.72;;;6.58;100.00
60371;BME280;48550;40.588;49.684;2023-03-03T04:58:01;102742.78;;;6.68;100.00
60371;BME280;48550;40.588;49.684;2023-03-03T05:00:26;102734.03;;;6.76;100.00
60371;BME280;48550;40.588;49.684;2023-03-03T05:02:52;102731.56;;;6.83;100.00
60371;BME280;48550;40.588;49.684;2023-03-03T05:05:18;102738.28;;;6.95;100.00
60371;BME280;48550;40.588;49.684;2023-03-03T05:07:43;102736.88;;;6.83;100.00
60371;BME280;48550;40.588;49.684;2023-03-03T05:10:09;102727.72;;;6.85;100.00
60371;BME280;48550;40.588;49.684;2023-03-03T05:12:35;102728.25;;;6.89;100.00
60371;BME280;48550;40.588;49.684;2023-03-03T05:15:01;102726.31;;;7.07;100.00
60371;BME280;48550;40.588;49.684;2023-03-03T05:17:27;102724.34;;;7.09;100.00
60371;BME280;48550;40.588;49.684;2023-03-03T05:19:53;102713.66;;;7.09;100.00
60371;BME280;48550;40.588;49.684;2023-03-03T05:22:18;102707.16;;;7.12;100.00
60371;BME280;48550;40.588;49.684;2023-03-03T05:24:44;102715.31;;;7.10;100.00
60371;BME280;48550;40.588;49.684;2023-03-03T05:27:13;102717.16;;;7.10;100.00
60371;BME280;48550;40.588;49.684;2023-03-03T05:29:39;102716.47;;;7.08;100.00
60371;BME280;48550;40.588;49.684;2023-03-03T05:32:05;102714.63;;;7.00;100.00
60371;BME280;48550;40.588;49.684;2023-03-03T05:34:30;102700.91;;;6.95;100.00
60371;BME280;48550;40.588;49.684;2023-03-03T05:36:56;102703.94;;;7.00;100.00
60371;BME280;48550;40.588;49.684;2023-03-03T05:39:22;102687.41;;;6.96;100.00
60371;BME280;48550;40.588;49.684;2023-03-03T05:41:48;102679.25;;;6.98;100.00
60371;BME280;48550;40.588;49.684;2023-03-03T05:44:13;102680.63;;;7.18;100.00
60371;BME280;48550;40.588;49.684;2023-03-03T05:46:39;102680.97;;;7.23;100.00
60371;BME280;48550;40.588;49.684;2023-03-03T05:49:05;102688.34;;;7.29;100.00
60371;BME280;48550;40.588;49.684;2023-03-03T05:51:30;102676.81;;;7.29;100.00
60371;BME280;48550;40.588;49.684;2023-03-03T05:53:56;102677.16;;;7.26;100.00
60371;BME280;48550;40.588;49.684;2023-03-03T05:56:22;102682.31;;;7.19;100.00
60371;BME280;48550;40.588;49.684;2023-03-03T05:58:47;102682.97;;;7.13;100.00
60371;BME280;48550;40.588;49.684;2023-03-03T06:01:13;102688.47;;;7.12;100.00
60371;BME280;48550;40.588;49.684;2023-03-03T06:03:39;102696.78;;;7.09;100.00
60371;BME280;48550;40.588;49.684;2023-03-03T06:06:05;102685.81;;;7.20;100.00
60371;BME280;48550;40.588;49.684;2023-03-03T06:08:30;102685.03;;;7.36;100.00
60371;BME280;48550;40.588;49.684;2023-03-03T06:10:57;102680.75;;;7.51;100.00
60371;BME280;48550;40.588;49.684;2023-03-03T06:13:23;102676.56;;;7.48;100.00
60371;BME280;48550;40.588;49.684;2023-03-03T06:15:48;102675.06;;;7.54;100.00
60371;BME280;48550;40.588;49.684;2023-03-03T06:18:14;102677.25;;;7.67;100.00
60371;BME280;48550;40.588;49.684;2023-03-03T06:20:40;102671.41;;;7.79;100.00
60371;BME280;48550;40.588;49.684;2023-03-03T06:23:05;102664.72;;;8.00;100.00
60371;BME280;48550;40.588;49.684;2023-03-03T06:25:31;102672.41;;;8.03;100.00
60371;BME280;48550;40.588;49.684;2023-03-03T06:28:00;102665.72;;;8.15;100.00
60371;BME280;48550;40.588;49.684;2023-03-03T06:30:26;102651.00;;;8.11;100.00
60371;BME280;48550;40.588;49.684;2023-03-03T06:32:53;102648.16;;;8.12;100.00
60371;BME280;48550;40.588;49.684;2023-03-03T06:35:19;102633.28;;;8.10;100.00
60371;BME280;48550;40.588;49.684;2023-03-03T06:37:45;102630.28;;;8.13;100.00
60371;BME280;48550;40.588;49.684;2023-03-03T06:40:11;102635.28;;;8.16;100.00
60371;BME280;48550;40.588;49.684;2023-03-03T06:42:37;102631.94;;;8.14;100.00
60371;BME280;48550;40.588;49.684;2023-03-03T06:45:03;102619.91;;;8.26;100.00
60371;BME280;48550;40.588;49.684;2023-03-03T06:47:28;102620.59;;;8.36;100.00
60371;BME280;48550;40.588;49.684;2023-03-03T06:49:54;102609.84;;;8.52;100.00
60371;BME280;48550;40.588;49.684;2023-03-03T06:52:24;102604.69;;;8.82;100.00
60371;BME280;48550;40.588;49.684;2023-03-03T06:54:53;102595.28;;;8.94;100.00
60371;BME280;48550;40.588;49.684;2023-03-03T06:57:28;102600.13;;;9.44;100.00
60371;BME280;48550;40.588;49.684;2023-03-03T06:59:57;102596.13;;;9.17;100.00
60371;BME280;48550;40.588;49.684;2023-03-03T07:02:25;102604.41;;;9.08;100.00
60371;BME280;48550;40.588;49.684;2023-03-03T07:04:52;102599.47;;;8.88;100.00
60371;BME280;48550;40.588;49.684;2023-03-03T07:07:24;102586.63;;;8.76;100.00
60371;BME280;48550;40.588;49.684;2023-03-03T07:09:53;102582.56;;;8.88;100.00
60371;BME280;48550;40.588;49.684;2023-03-03T07:12:22;102565.94;;;9.01;100.00
60371;BME280;48550;40.588;49.684;2023-03-03T07:14:54;102565.31;;;9.21;100.00
60371;BME280;48550;40.588;49.684;2023-03-03T07:17:24;102560.84;;;9.14;100.00
60371;BME280;48550;40.588;49.684;2023-03-03T07:19:50;102537.63;;;8.75;100.00
60371;BME280;48550;40.588;49.684;2023-03-03T07:22:21;102554.03;;;8.72;100.00
60371;BME280;48550;40.588;49.684;2023-03-03T07:24:51;102542.19;;;8.67;100.00
60371;BME280;48550;40.588;49.684;2023-03-03T07:27:23;102525.13;;;8.68;100.00
60371;BME280;48550;40.588;49.684;2023-03-03T07:29:51;102527.44;;;9.02;100.00
60371;BME280;48550;40.588;49.684;2023-03-03T07:34:45;102493.38;;;9.10;100.00
60371;BME280;48550;40.588;49.684;2023-03-03T07:37:34;102498.03;;;8.94;100.00
60371;BME280;48550;40.588;49.684;2023-03-03T07:40:02;102504.28;;;9.09;100.00
60371;BME280;48550;40.588;49.684;2023-03-03T07:42:39;102502.31;;;9.03;100.00
60371;BME280;48550;40.588;49.684;2023-03-03T07:45:26;102507.94;;;8.85;100.00
60371;BME280;48550;40.588;49.684;2023-03-03T07:48:18;102499.56;;;8.88;100.00
60371;BME280;48550;40.588;49.684;2023-03-03T07:50:42;102489.03;;;9.09;100.00
60371;BME280;48550;40.588;49.684;2023-03-03T07:53:28;102471.66;;;9.05;100.00
60371;BME280;48550;40.588;49.684;2023-03-03T07:55:54;102476.78;;;8.92;100.00
60371;BME280;48550;40.588;49.684;2023-03-03T07:58:36;102473.03;;;9.01;100.00
60371;BME280;48550;40.588;49.684;2023-03-03T08:01:34;102471.81;;;9.27;100.00
60371;BME280;48550;40.588;49.684;2023-03-03T08:04:28;102464.94;;;9.09;100.00
60371;BME280;48550;40.588;49.684;2023-03-03T08:06:59;102460.53;;;9.16;100.00
60371;BME280;48550;40.588;49.684;2023-03-03T08:12:30;102435.13;;;9.12;100.00
60371;BME280;48550;40.588;49.684;2023-03-03T08:15:07;102424.75;;;8.86;100.00
60371;BME280;48550;40.588;49.684;2023-03-03T08:17:37;102429.19;;;9.02;100.00
60371;BME280;48550;40.588;49.684;2023-03-03T08:23:09;102401.38;;;9.70;100.00
60371;BME280;48550;40.588;49.684;2023-03-03T08:25:34;102405.81;;;9.78;100.00
60371;BME280;48550;40.588;49.684;2023-03-03T08:28:00;102385.53;;;9.90;100.00
60371;BME280;48550;40.588;49.684;2023-03-03T08:30:26;102383.78;;;9.82;100.00
60371;BME280;48550;40.588;49.684;2023-03-03T08:32:52;102366.03;;;9.81;100.00
60371;BME280;48550;40.588;49.684;2023-03-03T08:35:17;102353.28;;;9.83;100.00
60371;BME280;48550;40.588;49.684;2023-03-03T08:37:43;102347.06;;;9.83;100.00
60371;BME280;48550;40.588;49.684;2023-03-03T08:40:09;102332.00;;;9.82;100.00
60371;BME280;48550;40.588;49.684;2023-03-03T08:42:35;102333.25;;;10.01;100.00
60371;BME280;48550;40.588;49.684;2023-03-03T08:45:01;102329.97;;;10.20;100.00
60371;BME280;48550;40.588;49.684;2023-03-03T08:47:26;102340.56;;;10.43;100.00
60371;BME280;48550;40.588;49.684;2023-03-03T08:49:52;102332.59;;;10.35;100.00
60371;BME280;48550;40.588;49.684;2023-03-03T08:52:19;102323.97;;;10.39;100.00
60371;BME280;48550;40.588;49.684;2023-03-03T08:54:44;102310.91;;;10.15;100.00
60371;BME280;48550;40.588;49.684;2023-03-03T08:57:10;102307.81;;;10.33;100.00
60371;BME280;48550;40.588;49.684;2023-03-03T08:59:36;102308.25;;;10.36;100.00
60371;BME280;48550;40.588;49.684;2023-03-03T09:02:05;102289.75;;;10.41;100.00
60371;BME280;48550;40.588;49.684;2023-03-03T09:04:31;102281.00;;;10.18;100.00
60371;BME280;48550;40.588;49.684;2023-03-03T09:06:57;102275.47;;;10.19;100.00
60371;BME280;48550;40.588;49.684;2023-03-03T09:09:23;102279.59;;;10.01;100.00
60371;BME280;48550;40.588;49.684;2023-03-03T09:11:49;102265.94;;;9.96;100.00
60371;BME280;48550;40.588;49.684;2023-03-03T09:14:17;102262.34;;;9.88;100.00
60371;BME280;48550;40.588;49.684;2023-03-03T09:16:49;102244.28;;;9.76;100.00
60371;BME280;48550;40.588;49.684;2023-03-03T09:19:31;102248.50;;;9.85;100.00
60371;BME280;48550;40.588;49.684;2023-03-03T09:22:01;102225.13;;;9.79;100.00
60371;BME280;48550;40.588;49.684;2023-03-03T09:24:29;102217.72;;;9.45;100.00
60371;BME280;48550;40.588;49.684;2023-03-03T09:26:56;102209.88;;;9.43;100.00
60371;BME280;48550;40.588;49.684;2023-03-03T09:32:00;102204.34;;;9.30;100.00
60371;BME280;48550;40.588;49.684;2023-03-03T09:34:40;102204.00;;;9.54;100.00
60371;BME280;48550;40.588;49.684;2023-03-03T09:39:38;102204.19;;;9.89;100.00
60371;BME280;48550;40.588;49.684;2023-03-03T09:53:08;102182.19;;;9.57;100.00
60371;BME280;48550;40.588;49.684;2023-03-03T10:01:27;102172.72;;;9.40;100.00
60371;BME280;48550;40.588;49.684;2023-03-03T10:06:51;102145.72;;;9.20;100.00
60371;BME280;48550;40.588;49.684;2023-03-03T10:20:49;102111.53;;;9.44;100.00
60371;BME280;48550;40.588;49.684;2023-03-03T10:31:48;102079.63;;;8.91;100.00
60371;BME280;48550;40.588;49.684;2023-03-03T10:34:43;102080.94;;;8.96;100.00
60371;BME280;48550;40.588;49.684;2023-03-03T10:43:14;102059.22;;;8.90;100.00
60371;BME280;48550;40.588;49.684;2023-03-03T10:46:09;102051.19;;;9.05;100.00
60371;BME280;48550;40.588;49.684;2023-03-03T10:51:38;102032.56;;;9.40;100.00
60371;BME280;48550;40.588;49.684;2023-03-03T11:07:52;102013.53;;;9.56;100.00
60371;BME280;48550;40.588;49.684;2023-03-03T11:15:56;102003.81;;;9.76;100.00
60371;BME280;48550;40.588;49.684;2023-03-03T11:22:09;102019.06;;;9.54;100.00
60371;BME280;48550;40.588;49.684;2023-03-03T11:24:27;102017.22;;;9.76;100.00
60371;BME280;48550;40.588;49.684;2023-03-03T11:27:13;102013.47;;;9.71;100.00
60371;BME280;48550;40.588;49.684;2023-03-03T11:35:25;101982.03;;;9.65;100.00
60371;BME280;48550;40.588;49.684;2023-03-03T11:37:59;101967.28;;;9.75;100.00
60371;BME280;48550;40.588;49.684;2023-03-03T11:40:50;101959.69;;;9.79;100.00
60371;BME280;48550;40.588;49.684;2023-03-03T11:43:20;101968.47;;;9.66;100.00
60371;BME280;48550;40.588;49.684;2023-03-03T11:45:56;101944.81;;;9.76;100.00
60371;BME280;48550;40.588;49.684;2023-03-03T11:48:45;101937.16;;;9.73;100.00
60371;BME280;48550;40.588;49.684;2023-03-03T11:51:22;101944.59;;;9.71;100.00
60371;BME280;48550;40.588;49.684;2023-03-03T11:59:06;101919.56;;;9.64;100.00
60371;BME280;48550;40.588;49.684;2023-03-03T12:02:09;101900.13;;;9.55;100.00
60371;BME280;48550;40.588;49.684;2023-03-03T12:04:52;101904.03;;;9.53;100.00
60371;BME280;48550;40.588;49.684;2023-03-03T12:13:21;101904.16;;;10.14;100.00
60371;BME280;48550;40.588;49.684;2023-03-03T12:19:03;101892.28;;;9.88;100.00
60371;BME280;48550;40.588;49.684;2023-03-03T12:30:41;101859.22;;;9.75;100.00
60371;BME280;48550;40.588;49.684;2023-03-03T12:36:20;101841.25;;;9.69;100.00
60371;BME280;48550;40.588;49.684;2023-03-03T12:47:32;101805.31;;;9.22;100.00
60371;BME280;48550;40.588;49.684;2023-03-03T12:58:14;101813.19;;;9.30;100.00
60371;BME280;48550;40.588;49.684;2023-03-03T13:01:02;101827.69;;;9.42;100.00
60371;BME280;48550;40.588;49.684;2023-03-03T13:03:48;101832.22;;;9.42;100.00
60371;BME280;48550;40.588;49.684;2023-03-03T13:20:15;101841.13;;;9.14;100.00
60371;BME280;48550;40.588;49.684;2023-03-03T13:22:56;101846.41;;;9.01;100.00
60371;BME280;48550;40.588;49.684;2023-03-03T13:28:22;101833.16;;;8.93;100.00
60371;BME280;48550;40.588;49.684;2023-03-03T13:31:00;101831.56;;;8.77;100.00
60371;BME280;48550;40.588;49.684;2023-03-03T13:33:29;101823.53;;;8.77;100.00
60371;BME280;48550;40.588;49.684;2023-03-03T13:36:06;101803.09;;;8.70;100.00
60371;BME280;48550;40.588;49.684;2023-03-03T13:38:51;101813.16;;;8.68;100.00
60371;BME280;48550;40.588;49.684;2023-03-03T13:44:41;101820.75;;;8.64;100.00
60371;BME280;48550;40.588;49.684;2023-03-03T13:52:31;101806.91;;;8.60;100.00
60371;BME280;48550;40.588;49.684;2023-03-03T13:55:25;101786.72;;;8.58;100.00
60371;BME280;48550;40.588;49.684;2023-03-03T14:01:05;101839.16;;;8.74;100.00
60371;BME280;48550;40.588;49.684;2023-03-03T14:06:06;101822.41;;;8.65;100.00
60371;BME280;48550;40.588;49.684;2023-03-03T14:20:23;101836.44;;;8.46;100.00
60371;BME280;48550;40.588;49.684;2023-03-03T14:22:21;101832.59;;;8.55;100.00
60371;BME280;48550;40.588;49.684;2023-03-03T14:25:09;101814.84;;;8.47;100.00
60371;BME280;48550;40.588;49.684;2023-03-03T14:35:40;101776.84;;;8.58;100.00
60371;BME280;48550;40.588;49.684;2023-03-03T14:38:17;101779.38;;;8.67;100.00
60371;BME280;48550;40.588;49.684;2023-03-03T14:40:45;101768.13;;;8.78;100.00
60371;BME280;48550;40.588;49.684;2023-03-03T14:48:59;101782.09;;;8.73;100.00
60371;BME280;48550;40.588;49.684;2023-03-03T14:51:44;101795.78;;;8.57;100.00
60371;BME280;48550;40.588;49.684;2023-03-03T15:02:30;101789.00;;;8.18;100.00
60371;BME280;48550;40.588;49.684;2023-03-03T15:07:57;101805.06;;;8.18;100.00
60371;BME280;48550;40.588;49.684;2023-03-03T15:10:41;101815.19;;;8.23;100.00
60371;BME280;48550;40.588;49.684;2023-03-03T15:16:04;101816.09;;;8.15;100.00
60371;BME280;48550;40.588;49.684;2023-03-03T15:18:33;101804.59;;;8.15;100.00
60371;BME280;48550;40.588;49.684;2023-03-03T15:21:14;101812.16;;;8.11;100.00
60371;BME280;48550;40.588;49.684;2023-03-03T15:23:57;101802.66;;;8.09;100.00
60371;BME280;48550;40.588;49.684;2023-03-03T15:26:53;101801.47;;;8.11;100.00
60371;BME280;48550;40.588;49.684;2023-03-03T15:32:16;101790.06;;;8.03;100.00
60371;BME280;48550;40.588;49.684;2023-03-03T15:38:06;101789.59;;;7.99;100.00
60371;BME280;48550;40.588;49.684;2023-03-03T15:40:36;101775.22;;;8.00;100.00
60371;BME280;48550;40.588;49.684;2023-03-03T15:54:29;101786.50;;;7.95;100.00
60371;BME280;48550;40.588;49.684;2023-03-03T15:57:39;101787.06;;;7.91;100.00
60371;BME280;48550;40.588;49.684;2023-03-03T16:05:58;101782.66;;;7.83;100.00
60371;BME280;48550;40.588;49.684;2023-03-03T16:08:48;101794.81;;;7.86;100.00
60371;BME280;48550;40.588;49.684;2023-03-03T16:11:46;101793.72;;;7.80;100.00
60371;BME280;48550;40.588;49.684;2023-03-03T16:20:26;101783.41;;;7.77;100.00
60371;BME280;48550;40.588;49.684;2023-03-03T16:23:13;101763.22;;;7.75;100.00
60371;BME280;48550;40.588;49.684;2023-03-03T16:26:12;101762.03;;;7.77;100.00
60371;BME280;48550;40.588;49.684;2023-03-03T16:28:51;101772.72;;;7.77;100.00
60371;BME280;48550;40.588;49.684;2023-03-03T16:31:26;101763.31;;;7.81;100.00
60371;BME280;48550;40.588;49.684;2023-03-03T16:34:27;101753.44;;;7.82;100.00
60371;BME280;48550;40.588;49.684;2023-03-03T16:42:20;101769.56;;;7.88;100.00
60371;BME280;48550;40.588;49.684;2023-03-03T16:47:45;101774.84;;;8.03;100.00
60371;BME280;48550;40.588;49.684;2023-03-03T16:50:30;101762.31;;;8.04;100.00
60371;BME280;48550;40.588;49.684;2023-03-03T17:04:11;101724.41;;;8.36;100.00
60371;BME280;48550;40.588;49.684;2023-03-03T17:12:29;101695.25;;;8.76;100.00
60371;BME280;48550;40.588;49.684;2023-03-03T17:24:24;101681.28;;;9.21;100.00
60371;BME280;48550;40.588;49.684;2023-03-03T17:30:20;101685.59;;;9.16;100.00
60371;BME280;48550;40.588;49.684;2023-03-03T17:35:58;101686.22;;;9.18;100.00
60371;BME280;48550;40.588;49.684;2023-03-03T17:38:37;101688.03;;;9.11;100.00
60371;BME280;48550;40.588;49.684;2023-03-03T17:41:13;101686.34;;;9.03;100.00
60371;BME280;48550;40.588;49.684;2023-03-03T17:58:01;101669.25;;;9.04;100.00
60371;BME280;48550;40.588;49.684;2023-03-03T18:01:01;101680.69;;;8.85;100.00
60371;BME280;48550;40.588;49.684;2023-03-03T18:07:06;101676.78;;;8.53;100.00
60371;BME280;48550;40.588;49.684;2023-03-03T18:12:56;101661.56;;;8.53;100.00
60371;BME280;48550;40.588;49.684;2023-03-03T18:18:21;101643.50;;;8.62;100.00
60371;BME280;48550;40.588;49.684;2023-03-03T18:21:08;101641.84;;;8.61;100.00